Madsen Beach, South Dakota
Current Conditions -  °F | °C
As of 4:14 AM on Wednesday 26 Nov 2014 (Local Time) from KVVV Reporting Station
Light Snow Light Snow  
Wind Chill:   Ceiling: 1400
Heat Index: 21°   Visibility: 2.5mi
Dew Point: 18°   Wind: 17mph
Humidity: 86%   Direction: 360°N
Pressure: 30.06"   Gusts: NA
Location:  45.4152°N, 96.8664°W
Report Text: KVVV 261014Z AUTO 36015KT 2 1/2SM -SN OVC014 M06/M08 A3006 RMK AO2
Loading
Personal Weather Stations






























Interactive Weather Map New forecast layout! Learn more

10-Day Weather Forecast

Advertisements
Track Severe Weather on mobile